createdAt,value
2023-04-13T00:04:42.936Z,21.80
2023-04-13T00:14:50.969Z,20.50
2023-04-13T00:19:53.887Z,19.50
2023-04-13T00:24:55.607Z,27.60
2023-04-13T00:29:57.784Z,27.50
2023-04-13T00:34:59.921Z,26.80
2023-04-13T00:40:01.427Z,26.90
2023-04-13T00:45:03.088Z,20.70
2023-04-13T00:50:06.626Z,22.70
2023-04-13T00:55:08.706Z,23.10
2023-04-13T01:00:10.777Z,23.30
2023-04-13T01:05:15.656Z,24.50
2023-04-13T01:10:39.387Z,23.80
2023-04-13T01:15:47.158Z,24.50
2023-04-13T01:20:49.271Z,21.80
2023-04-13T01:25:57.685Z,26.90
2023-04-13T01:31:05.699Z,26.10
2023-04-13T01:36:10.441Z,26.50
2023-04-13T01:41:11.957Z,28.60
2023-04-13T01:46:14.425Z,27.30
2023-04-13T01:51:19.449Z,26.60
2023-04-13T01:56:23.249Z,23.70
2023-04-13T02:06:27.604Z,21.40
2023-04-13T02:11:29.072Z,24.10
2023-04-13T02:16:30.839Z,21.30
2023-04-13T02:21:32.441Z,22.60
2023-04-13T02:26:33.929Z,25.30
2023-04-13T02:31:35.618Z,23.40
2023-04-13T02:36:38.969Z,22.80
2023-04-13T02:41:43.120Z,20.40
2023-04-13T02:46:45.199Z,21.70
2023-04-13T02:51:47.095Z,22.30
2023-04-13T02:56:49.177Z,21.40
2023-04-13T03:01:50.803Z,19.60
2023-04-13T03:06:54.494Z,21.80
2023-04-13T03:11:56.811Z,20.30
2023-04-13T03:16:58.564Z,22.30
2023-04-13T03:22:00.427Z,22.00
2023-04-13T03:27:02.874Z,21.50
2023-04-13T03:32:04.563Z,20.50
2023-04-13T03:37:06.405Z,19.30
2023-04-13T03:42:07.916Z,22.00
2023-04-13T03:47:09.796Z,21.90
2023-04-13T03:52:11.898Z,20.60
2023-04-13T03:57:13.482Z,22.90
2023-04-13T04:02:15.073Z,22.30
2023-04-13T04:07:16.970Z,20.90
2023-04-13T04:12:18.626Z,21.10
2023-04-13T04:17:20.097Z,22.50
2023-04-13T04:22:21.598Z,20.60
2023-04-13T04:27:26.295Z,25.70
2023-04-13T04:32:27.877Z,24.30
2023-04-13T04:37:30.434Z,26.80
2023-04-13T04:42:32.516Z,25.50
2023-04-13T04:47:42.225Z,26.00
2023-04-13T04:57:46.240Z,27.40
2023-04-13T05:02:50.198Z,26.30
2023-04-13T05:07:52.508Z,25.90
2023-04-13T05:12:54.877Z,29.50
2023-04-13T05:17:56.829Z,40.70
2023-04-13T05:22:59.680Z,39.20
2023-04-13T05:28:01.234Z,26.30
2023-04-13T05:33:06.606Z,28.60
2023-04-13T05:38:08.233Z,23.00
2023-04-13T05:43:10.098Z,21.60
2023-04-13T05:48:11.753Z,18.40
2023-04-13T05:53:14.047Z,25.80
2023-04-13T05:58:15.762Z,20.30
2023-04-13T06:03:18.029Z,20.20
2023-04-13T06:08:21.641Z,24.20
2023-04-13T06:13:23.137Z,21.50
2023-04-13T06:18:28.427Z,25.20
2023-04-13T06:23:29.951Z,27.20
2023-04-13T06:28:32.220Z,30.20
2023-04-13T06:33:33.844Z,32.50
2023-04-13T06:38:35.345Z,28.70
2023-04-13T06:43:37.424Z,35.60
2023-04-13T06:48:38.917Z,23.80
2023-04-13T06:53:41.361Z,20.90
2023-04-13T06:58:42.881Z,18.10
2023-04-13T07:03:44.558Z,20.90
2023-04-13T07:08:46.578Z,21.60
2023-04-13T07:13:48.309Z,20.80
2023-04-13T07:18:49.854Z,15.80
2023-04-13T07:23:51.323Z,12.90
2023-04-13T07:28:53.049Z,13.40
2023-04-13T07:33:54.769Z,15.70
2023-04-13T07:38:58.626Z,15.60
2023-04-13T07:44:00.420Z,14.50
2023-04-13T07:49:02.196Z,14.70
2023-04-13T07:54:03.943Z,12.50
2023-04-13T07:59:05.536Z,11.60
2023-04-13T08:04:07.169Z,13.60
2023-04-13T08:09:09.602Z,11.00
2023-04-13T08:14:11.884Z,11.80
2023-04-13T08:19:13.374Z,12.40
2023-04-13T08:24:14.873Z,11.20
2023-04-13T08:29:16.456Z,10.50
2023-04-13T08:34:18.591Z,13.30
2023-04-13T08:39:21.264Z,12.40
2023-04-13T08:44:23.637Z,12.20
2023-04-13T08:49:26.140Z,12.70
2023-04-13T08:54:28.551Z,12.00
2023-04-13T08:59:30.923Z,12.20
2023-04-13T09:04:36.368Z,12.20
2023-04-13T09:09:42.752Z,11.60
2023-04-13T09:14:44.228Z,8.60
2023-04-13T09:19:45.862Z,10.00
2023-04-13T09:24:48.692Z,10.50
2023-04-13T09:29:52.248Z,10.10
2023-04-13T09:34:59.200Z,8.10
2023-04-13T09:40:13.630Z,8.10
2023-04-13T09:45:15.346Z,9.60
2023-04-13T09:50:28.215Z,9.50
2023-04-13T09:55:32.751Z,7.70
2023-04-13T10:00:38.422Z,7.60
2023-04-13T10:05:58.069Z,8.40
2023-04-13T10:11:02.447Z,7.10
2023-04-13T10:16:32.335Z,7.10
2023-04-13T10:21:39.561Z,6.70
2023-04-13T10:26:44.596Z,7.00
2023-04-13T10:31:48.332Z,7.80
2023-04-13T10:36:52.328Z,6.30
2023-04-13T10:42:00.807Z,7.80
2023-04-13T10:47:06.236Z,6.30
2023-04-13T10:52:10.653Z,6.70
2023-04-13T10:57:15.002Z,6.30
2023-04-13T11:02:18.139Z,6.70
2023-04-13T11:12:23.436Z,5.70
2023-04-13T11:17:25.228Z,5.80
2023-04-13T11:22:29.026Z,6.00
2023-04-13T11:27:30.636Z,6.40
2023-04-13T11:32:39.423Z,6.20
2023-04-13T11:37:49.564Z,6.40
2023-04-13T11:42:55.969Z,6.60
2023-04-13T11:47:58.538Z,5.50
2023-04-13T11:53:00.677Z,4.80
2023-04-13T11:58:18.754Z,6.20
2023-04-13T12:08:26.012Z,6.40
2023-04-13T12:13:36.220Z,6.70
2023-04-13T12:18:47.453Z,4.90
2023-04-13T12:24:01.610Z,3.80
2023-04-13T12:29:05.425Z,4.50
2023-04-13T12:34:07.895Z,4.30
2023-04-13T12:39:09.679Z,4.00
2023-04-13T12:44:11.499Z,3.90
2023-04-13T12:49:12.989Z,3.10
2023-04-13T12:54:14.775Z,3.40
2023-04-13T12:59:16.802Z,3.20
2023-04-13T13:04:18.388Z,3.40
2023-04-13T13:09:20.812Z,2.70
2023-04-13T13:14:22.426Z,3.90
2023-04-13T13:19:23.940Z,3.90
2023-04-13T13:24:25.488Z,3.50
2023-04-13T13:29:30.938Z,3.70
2023-04-13T13:34:32.600Z,3.20
2023-04-13T13:39:34.244Z,4.00
2023-04-13T13:44:37.007Z,3.00
2023-04-13T13:49:39.042Z,3.60
2023-04-13T13:54:40.568Z,4.00
2023-04-13T13:59:42.791Z,3.50
2023-04-13T14:04:44.358Z,3.80
2023-04-13T14:09:46.343Z,3.70
2023-04-13T14:14:47.885Z,3.40
2023-04-13T14:19:49.348Z,2.90
2023-04-13T14:24:56.680Z,3.50
2023-04-13T14:29:58.181Z,4.20
2023-04-13T14:35:00.596Z,3.70
2023-04-13T14:40:08.848Z,4.00
2023-04-13T14:45:12.431Z,4.30
2023-04-13T14:50:15.468Z,4.30
2023-04-13T14:55:17.341Z,4.10
2023-04-13T15:00:32.602Z,3.50
2023-04-13T15:05:46.377Z,5.40
2023-04-13T15:10:48.019Z,3.90
2023-04-13T15:15:52.009Z,4.00
2023-04-13T15:20:53.738Z,4.60
2023-04-13T15:25:55.418Z,3.70
2023-04-13T15:30:57.032Z,4.10
2023-04-13T15:35:59.074Z,4.30
2023-04-13T15:41:00.628Z,4.30
2023-04-13T15:46:03.661Z,4.10
2023-04-13T15:51:05.200Z,4.40
2023-04-13T15:56:10.295Z,5.00
2023-04-13T16:01:13.138Z,4.10
2023-04-13T16:06:14.712Z,5.00
2023-04-13T16:11:16.218Z,4.40
2023-04-13T16:16:18.434Z,3.90
2023-04-13T16:21:20.128Z,4.10
2023-04-13T16:26:22.724Z,8.90
2023-04-13T16:31:24.320Z,4.50
2023-04-13T16:36:27.215Z,4.30
2023-04-13T16:46:30.506Z,3.70
2023-04-13T16:51:32.236Z,4.40
2023-04-13T16:56:34.239Z,3.80
2023-04-13T17:01:39.246Z,4.80
2023-04-13T17:06:41.593Z,5.10
2023-04-13T17:11:43.117Z,4.00
2023-04-13T17:16:44.691Z,4.80
2023-04-13T17:21:46.282Z,5.00
2023-04-13T17:26:48.430Z,5.90
2023-04-13T17:31:50.418Z,5.50
2023-04-13T17:36:52.641Z,5.10
2023-04-13T17:41:54.233Z,6.90
2023-04-13T17:46:56.033Z,9.20
2023-04-13T17:51:59.802Z,8.30
2023-04-13T17:57:01.785Z,9.70
2023-04-13T18:02:03.401Z,9.30
2023-04-13T18:07:05.195Z,10.10
2023-04-13T18:12:07.141Z,10.60
2023-04-13T18:17:08.740Z,9.80
2023-04-13T18:22:10.309Z,11.40
2023-04-13T18:27:12.231Z,15.50
2023-04-13T18:32:17.045Z,18.00
2023-04-13T18:37:18.830Z,8.70
2023-04-13T18:42:20.392Z,11.30
2023-04-13T18:47:24.198Z,9.60
2023-04-13T18:52:26.465Z,10.00
2023-04-13T18:57:27.926Z,8.10
2023-04-13T19:02:29.626Z,10.60
2023-04-13T19:07:31.340Z,10.70
2023-04-13T19:12:33.009Z,9.90
2023-04-13T19:17:34.677Z,10.10
2023-04-13T19:22:37.038Z,9.90
2023-04-13T19:27:38.594Z,9.90
2023-04-13T19:32:43.682Z,11.30
2023-04-13T19:37:45.498Z,12.70
2023-04-13T19:42:47.076Z,12.00
2023-04-13T19:47:48.951Z,14.80
2023-04-13T19:52:52.844Z,13.70
2023-04-13T19:57:54.338Z,11.30
2023-04-13T20:03:03.454Z,13.40
2023-04-13T20:13:06.734Z,11.90
2023-04-13T20:18:09.056Z,14.70
2023-04-13T20:23:11.298Z,12.70
2023-04-13T20:28:12.873Z,13.10
2023-04-13T20:33:14.546Z,13.70
2023-04-13T20:38:16.080Z,14.10
2023-04-13T20:43:20.489Z,12.70
2023-04-13T20:53:30.233Z,12.00
2023-04-13T20:58:34.841Z,13.10
2023-04-13T21:03:36.406Z,12.50
2023-04-13T21:08:38.028Z,14.80
2023-04-13T21:13:39.593Z,13.20
2023-04-13T21:18:41.939Z,12.60
2023-04-13T21:23:43.674Z,12.60
2023-04-13T21:28:45.128Z,13.00
2023-04-13T21:33:46.657Z,12.40
2023-04-13T21:38:48.349Z,10.80
2023-04-13T21:43:49.913Z,11.50
2023-04-13T21:48:52.136Z,10.40
2023-04-13T21:53:53.676Z,12.50
2023-04-13T21:58:55.308Z,10.30
2023-04-13T22:03:56.973Z,10.10
2023-04-13T22:08:58.935Z,9.40
2023-04-13T22:14:00.935Z,10.80
2023-04-13T22:19:03.109Z,11.70
2023-04-13T22:24:04.955Z,7.60
2023-04-13T22:29:07.173Z,9.30
2023-04-13T22:34:08.648Z,9.70
2023-04-13T22:39:10.140Z,9.30
2023-04-13T22:44:11.691Z,10.20
2023-04-13T22:49:13.263Z,8.80
2023-04-13T22:54:14.827Z,6.40
2023-04-13T22:59:16.713Z,9.20
2023-04-13T23:04:18.235Z,6.20
2023-04-13T23:09:19.822Z,7.90
2023-04-13T23:14:24.629Z,8.70
2023-04-13T23:19:26.221Z,8.60
2023-04-13T23:24:28.523Z,9.00
2023-04-13T23:29:30.120Z,8.50
2023-04-13T23:34:32.168Z,8.50
2023-04-13T23:39:34.436Z,8.80
2023-04-13T23:44:36.044Z,7.50
2023-04-13T23:49:37.726Z,7.70
2023-04-13T23:54:39.326Z,7.20
2023-04-13T23:59:40.922Z,7.00
